createdAt,value
2018-07-30T00:01:06.714Z,91.60
2018-07-30T00:03:35.349Z,91.80
2018-07-30T00:06:03.302Z,91.50
2018-07-30T00:08:32.190Z,91.70
2018-07-30T00:15:56.309Z,91.50
2018-07-30T00:18:24.295Z,91.50
2018-07-30T00:20:52.657Z,91.50
2018-07-30T00:25:48.471Z,91.40
2018-07-30T00:28:16.965Z,91.30
2018-07-30T00:30:44.842Z,91.30
2018-07-30T00:33:12.807Z,91.40
2018-07-30T00:35:40.677Z,91.20
2018-07-30T00:40:37.081Z,91.10
2018-07-30T00:43:04.950Z,91.10
2018-07-30T00:45:33.497Z,91.10
2018-07-30T00:50:29.094Z,91.10
2018-07-30T00:52:57.681Z,91.10
2018-07-30T00:55:25.550Z,91.00
2018-07-30T00:57:54.162Z,91.00
2018-07-30T01:02:49.722Z,91.10
2018-07-30T01:05:17.691Z,91.00
2018-07-30T01:07:45.611Z,91.10
2018-07-30T01:10:13.476Z,91.20
2018-07-30T01:12:41.343Z,91.30
2018-07-30T01:15:09.402Z,91.30
2018-07-30T01:17:37.599Z,91.20
2018-07-30T01:22:33.432Z,91.50
2018-07-30T01:25:01.383Z,91.40
2018-07-30T01:27:29.274Z,91.40
2018-07-30T01:32:24.859Z,91.40
2018-07-30T01:34:53.314Z,91.30
2018-07-30T01:37:21.877Z,91.40
2018-07-30T01:42:17.574Z,91.70
2018-07-30T01:44:45.509Z,91.60
2018-07-30T01:47:13.414Z,91.70
2018-07-30T01:49:41.363Z,91.70
2018-07-30T01:52:09.302Z,91.80
2018-07-30T01:54:37.149Z,91.70
2018-07-30T01:59:32.733Z,91.80
2018-07-30T02:02:00.609Z,92.00
2018-07-30T02:04:28.553Z,92.20
2018-07-30T02:06:56.414Z,92.30
2018-07-30T02:09:24.293Z,92.10
2018-07-30T02:11:52.187Z,92.00
2018-07-30T02:14:20.173Z,92.10
2018-07-30T02:21:44.130Z,92.30
2018-07-30T02:24:12.064Z,92.20
2018-07-30T02:26:40.073Z,92.30
2018-07-30T02:29:08.702Z,92.20
2018-07-30T02:31:38.367Z,92.30
2018-07-30T02:34:07.164Z,92.20
2018-07-30T02:36:35.120Z,92.10
2018-07-30T02:39:03.162Z,92.10
2018-07-30T02:43:59.531Z,92.10
2018-07-30T02:46:27.453Z,92.10
2018-07-30T02:48:55.408Z,92.00
2018-07-30T02:51:23.350Z,92.00
2018-07-30T02:53:51.232Z,92.20
2018-07-30T02:56:19.140Z,92.20
2018-07-30T02:58:47.635Z,92.20
2018-07-30T03:03:43.275Z,92.10
2018-07-30T03:06:11.684Z,92.10
2018-07-30T03:08:39.602Z,92.30
2018-07-30T03:11:07.516Z,92.40
2018-07-30T03:13:35.369Z,92.30
2018-07-30T03:16:03.961Z,92.20
2018-07-30T03:18:31.980Z,92.10
2018-07-30T03:20:59.845Z,92.20
2018-07-30T03:23:27.719Z,92.30
2018-07-30T03:25:56.302Z,92.40
2018-07-30T03:30:52.734Z,92.70
2018-07-30T03:33:20.617Z,92.70
2018-07-30T03:38:16.232Z,92.80
2018-07-30T03:40:44.108Z,92.80
2018-07-30T03:43:12.715Z,92.90
2018-07-30T03:48:08.551Z,92.90
2018-07-30T03:50:36.431Z,92.80
2018-07-30T03:58:00.264Z,93.10
2018-07-30T04:00:28.320Z,93.00
2018-07-30T04:02:56.216Z,93.10
2018-07-30T04:05:24.167Z,93.10
2018-07-30T04:07:52.250Z,93.10
2018-07-30T04:10:20.183Z,92.90
2018-07-30T04:12:48.353Z,92.90
2018-07-30T04:15:16.380Z,93.10
2018-07-30T04:17:44.811Z,93.10
2018-07-30T04:20:13.489Z,93.00
2018-07-30T04:22:41.952Z,93.10
2018-07-30T04:25:09.913Z,93.00
2018-07-30T04:32:33.391Z,92.80
2018-07-30T04:37:29.637Z,93.50
2018-07-30T04:39:57.503Z,93.40
2018-07-30T04:42:25.446Z,93.50
2018-07-30T04:44:53.296Z,93.60
2018-07-30T04:47:21.291Z,93.60
2018-07-30T04:49:49.191Z,93.60
2018-07-30T04:52:17.085Z,93.60
2018-07-30T04:57:12.733Z,93.70
2018-07-30T04:59:41.290Z,93.70
2018-07-30T05:02:09.222Z,93.80
2018-07-30T05:04:37.998Z,93.90
2018-07-30T05:07:05.852Z,93.90
2018-07-30T05:09:33.756Z,93.90
2018-07-30T05:12:01.682Z,93.90
2018-07-30T05:14:29.640Z,93.90
2018-07-30T05:16:57.661Z,93.90
2018-07-30T05:19:25.720Z,93.80
2018-07-30T05:21:53.623Z,93.80
2018-07-30T05:24:21.558Z,93.90
2018-07-30T05:26:49.794Z,94.00
2018-07-30T05:29:17.691Z,94.00
2018-07-30T05:31:45.680Z,93.80
2018-07-30T05:34:13.589Z,93.70
2018-07-30T05:36:42.913Z,93.50
2018-07-30T05:39:11.498Z,93.50
2018-07-30T05:41:39.754Z,93.10
2018-07-30T05:49:04.692Z,92.30
2018-07-30T05:51:32.736Z,92.20
2018-07-30T05:54:00.655Z,91.20
2018-07-30T05:56:28.542Z,90.40
2018-07-30T05:58:56.427Z,89.60
2018-07-30T06:01:24.365Z,89.40
2018-07-30T06:03:53.275Z,87.90
2018-07-30T06:06:21.255Z,87.50
2018-07-30T06:13:44.833Z,87.80
2018-07-30T06:16:12.813Z,86.30
2018-07-30T06:21:08.593Z,86.80
2018-07-30T06:23:38.209Z,85.60
2018-07-30T06:26:07.061Z,84.70
2018-07-30T06:28:34.991Z,84.00
2018-07-30T06:31:02.906Z,84.50
2018-07-30T06:33:31.643Z,84.50
2018-07-30T06:36:00.717Z,85.20
2018-07-30T06:38:29.413Z,84.00
2018-07-30T06:40:58.486Z,83.80
2018-07-30T06:43:26.538Z,84.40
2018-07-30T06:45:54.515Z,84.20
2018-07-30T06:48:22.673Z,83.40
2018-07-30T06:55:46.930Z,82.70
2018-07-30T06:58:14.857Z,82.90
2018-07-30T07:00:42.768Z,82.60
2018-07-30T07:03:12.185Z,81.90
2018-07-30T07:05:40.721Z,83.10
2018-07-30T07:10:36.514Z,81.10
2018-07-30T07:13:04.557Z,81.10
2018-07-30T07:15:32.466Z,81.10
2018-07-30T07:18:00.934Z,80.80
2018-07-30T07:20:28.837Z,80.20
2018-07-30T07:22:57.447Z,80.00
2018-07-30T07:27:53.077Z,79.80
2018-07-30T07:30:21.118Z,79.10
2018-07-30T07:32:49.076Z,75.50
2018-07-30T07:35:16.981Z,75.80
2018-07-30T07:42:46.537Z,74.20
2018-07-30T07:45:14.505Z,74.10
2018-07-30T07:47:42.438Z,74.40
2018-07-30T07:50:11.647Z,74.60
2018-07-30T07:52:39.505Z,74.10
2018-07-30T07:55:07.395Z,72.90
2018-07-30T07:57:35.348Z,74.20
2018-07-30T08:00:05.338Z,76.10
2018-07-30T08:02:33.236Z,74.50
2018-07-30T08:05:01.161Z,74.90
2018-07-30T08:07:30.001Z,76.10
2018-07-30T08:09:58.049Z,75.20
2018-07-30T08:14:53.881Z,73.80
2018-07-30T08:17:21.793Z,73.30
2018-07-30T08:19:49.710Z,74.80
2018-07-30T08:22:18.644Z,74.90
2018-07-30T08:24:46.630Z,73.40
2018-07-30T08:27:14.560Z,73.90
2018-07-30T08:29:42.528Z,72.70
2018-07-30T08:32:10.449Z,72.60
2018-07-30T08:34:38.701Z,74.80
2018-07-30T08:37:06.748Z,72.90
2018-07-30T08:44:30.162Z,70.90
2018-07-30T08:46:58.098Z,72.90
2018-07-30T08:49:26.047Z,72.40
2018-07-30T08:51:53.985Z,70.80
2018-07-30T08:54:21.917Z,71.40
2018-07-30T08:56:49.832Z,73.00
2018-07-30T08:59:17.826Z,70.70
2018-07-30T09:04:13.846Z,72.20
2018-07-30T09:06:41.812Z,70.50
2018-07-30T09:09:10.464Z,71.00
2018-07-30T09:11:38.945Z,72.00
2018-07-30T09:16:35.034Z,72.00
2018-07-30T09:19:03.723Z,69.60
2018-07-30T09:21:31.654Z,70.80
2018-07-30T09:23:59.715Z,70.80
2018-07-30T09:26:28.673Z,70.40
2018-07-30T09:28:56.599Z,69.10
2018-07-30T09:31:24.559Z,69.00
2018-07-30T09:33:53.083Z,69.40
2018-07-30T09:36:23.372Z,70.20
2018-07-30T09:38:51.709Z,71.20
2018-07-30T09:41:20.316Z,71.40
2018-07-30T09:43:48.606Z,71.00
2018-07-30T09:48:44.551Z,70.30
2018-07-30T09:53:41.056Z,69.30
2018-07-30T09:56:09.342Z,69.20
2018-07-30T09:58:37.547Z,69.60
2018-07-30T10:01:13.600Z,69.40
2018-07-30T10:06:09.977Z,68.10
2018-07-30T10:08:38.738Z,68.80
2018-07-30T10:11:06.670Z,69.00
2018-07-30T10:13:35.015Z,69.60
2018-07-30T10:16:02.931Z,69.20
2018-07-30T10:18:31.780Z,70.10
2018-07-30T10:20:59.768Z,69.50
2018-07-30T10:23:27.706Z,68.00
2018-07-30T10:25:55.619Z,68.80
2018-07-30T10:28:23.569Z,69.20
2018-07-30T10:30:52.877Z,70.10
2018-07-30T10:33:20.679Z,69.80
2018-07-30T10:38:16.769Z,71.30
2018-07-30T10:40:45.847Z,71.80
2018-07-30T10:43:13.907Z,72.20
2018-07-30T10:45:41.920Z,71.70
2018-07-30T10:48:09.861Z,72.80
2018-07-30T10:50:37.730Z,73.60
2018-07-30T10:53:10.199Z,73.70
2018-07-30T10:55:38.180Z,74.50
2018-07-30T10:58:06.429Z,75.00
2018-07-30T11:00:34.410Z,75.00
2018-07-30T11:03:02.319Z,75.10
2018-07-30T11:05:30.230Z,75.10
2018-07-30T11:10:26.265Z,75.20
2018-07-30T11:12:54.222Z,75.80
2018-07-30T11:15:22.140Z,75.20
2018-07-30T11:17:50.210Z,75.40
2018-07-30T11:20:18.970Z,75.50
2018-07-30T11:25:14.675Z,75.40
2018-07-30T11:27:42.624Z,75.70
2018-07-30T11:30:11.146Z,74.90
2018-07-30T11:32:39.113Z,75.10
2018-07-30T11:37:34.826Z,74.80
2018-07-30T11:40:03.094Z,75.60
2018-07-30T11:42:31.024Z,76.50
2018-07-30T11:44:59.279Z,76.20
2018-07-30T11:49:55.691Z,76.00
2018-07-30T11:52:24.120Z,77.30
2018-07-30T11:54:52.055Z,77.90
2018-07-30T11:57:20.887Z,78.20
2018-07-30T11:59:49.734Z,78.20
2018-07-30T12:02:17.702Z,79.40
2018-07-30T12:04:45.696Z,79.60
2018-07-30T12:12:09.978Z,77.80
2018-07-30T12:14:37.956Z,77.90
2018-07-30T12:17:05.884Z,79.20
2018-07-30T12:19:34.379Z,78.60
2018-07-30T12:22:02.732Z,79.30
2018-07-30T12:24:31.312Z,80.80
2018-07-30T12:26:59.270Z,82.00
2018-07-30T12:31:54.999Z,84.50
2018-07-30T12:34:23.449Z,82.50
2018-07-30T12:36:51.361Z,85.30
2018-07-30T12:39:19.253Z,83.80
2018-07-30T12:41:47.169Z,82.60
2018-07-30T12:44:15.485Z,85.40
2018-07-30T12:46:43.949Z,87.50
2018-07-30T12:51:40.911Z,85.80
2018-07-30T12:56:36.711Z,84.40
2018-07-30T12:59:04.614Z,85.00
2018-07-30T13:01:32.504Z,85.70
2018-07-30T13:04:00.395Z,84.80
2018-07-30T13:06:28.327Z,84.80
2018-07-30T13:08:56.930Z,83.80
2018-07-30T13:11:24.845Z,85.10
2018-07-30T13:13:52.765Z,83.90
2018-07-30T13:16:22.138Z,85.40
2018-07-30T13:23:45.942Z,86.30
2018-07-30T13:28:41.547Z,85.50
2018-07-30T13:33:37.967Z,86.50
2018-07-30T13:36:06.935Z,85.10
2018-07-30T13:38:34.855Z,84.30
2018-07-30T13:41:02.799Z,83.80
2018-07-30T13:43:30.931Z,84.80
2018-07-30T13:45:59.516Z,85.10
2018-07-30T13:48:27.896Z,85.00
2018-07-30T13:50:55.943Z,84.30
2018-07-30T13:53:23.857Z,83.50
2018-07-30T13:55:51.774Z,81.30
2018-07-30T13:58:19.820Z,80.60
2018-07-30T14:00:48.020Z,81.40
2018-07-30T14:03:15.906Z,81.30
2018-07-30T14:13:07.221Z,82.90
2018-07-30T14:15:35.872Z,83.10
2018-07-30T14:18:03.873Z,83.00
2018-07-30T14:20:31.788Z,83.10
2018-07-30T14:25:28.271Z,82.80
2018-07-30T14:30:24.768Z,81.80
2018-07-30T14:32:53.093Z,81.30
2018-07-30T14:35:21.035Z,82.20
2018-07-30T14:40:16.736Z,82.90
2018-07-30T14:42:45.241Z,81.90
2018-07-30T14:45:13.197Z,80.00
2018-07-30T14:47:41.872Z,78.60
2018-07-30T14:50:10.929Z,77.20
2018-07-30T14:52:40.229Z,74.00
2018-07-30T14:55:08.270Z,71.70
2018-07-30T14:57:36.331Z,73.20
2018-07-30T15:00:05.910Z,72.00
2018-07-30T15:02:33.820Z,72.00
2018-07-30T15:05:01.726Z,72.10
2018-07-30T15:07:30.798Z,71.10
2018-07-30T15:17:23.080Z,68.10
2018-07-30T15:22:19.425Z,66.50
2018-07-30T15:24:47.435Z,65.40
2018-07-30T15:27:15.400Z,66.20
2018-07-30T15:29:43.445Z,66.10
2018-07-30T15:34:39.387Z,65.40
2018-07-30T15:37:07.355Z,65.50
2018-07-30T15:39:35.290Z,68.00
2018-07-30T15:42:03.301Z,67.30
2018-07-30T15:44:31.226Z,66.20
2018-07-30T15:46:59.155Z,66.50
2018-07-30T15:49:28.055Z,67.30
2018-07-30T15:51:55.999Z,65.40
2018-07-30T15:54:23.914Z,65.30
2018-07-30T15:56:51.980Z,65.50
2018-07-30T15:59:20.076Z,67.30
2018-07-30T16:06:43.547Z,66.70
2018-07-30T16:09:11.516Z,66.10
2018-07-30T16:11:39.482Z,66.20
2018-07-30T16:14:07.428Z,66.40
2018-07-30T16:16:36.008Z,64.60
2018-07-30T16:19:03.949Z,64.70
2018-07-30T16:21:32.244Z,63.00
2018-07-30T16:24:01.135Z,65.40
2018-07-30T16:26:29.114Z,66.10
2018-07-30T16:28:57.067Z,66.40
2018-07-30T16:33:52.831Z,68.60
2018-07-30T16:36:20.747Z,68.10
2018-07-30T16:38:49.197Z,69.40
2018-07-30T16:41:17.097Z,66.90
2018-07-30T16:43:45.390Z,64.80
2018-07-30T16:51:10.835Z,64.70
2018-07-30T16:56:06.527Z,66.80
2018-07-30T16:58:34.455Z,66.10
2018-07-30T17:01:02.698Z,68.20
2018-07-30T17:03:30.691Z,68.30
2018-07-30T17:05:59.464Z,70.80
2018-07-30T17:13:23.878Z,75.00
2018-07-30T17:20:47.364Z,74.30
2018-07-30T17:23:15.674Z,73.50
2018-07-30T17:28:12.077Z,73.50
2018-07-30T17:30:40.684Z,74.00
2018-07-30T17:38:06.349Z,72.10
2018-07-30T17:40:34.247Z,71.80
2018-07-30T17:43:02.175Z,71.30
2018-07-30T17:45:30.055Z,71.60
2018-07-30T17:47:57.967Z,72.70
2018-07-30T17:50:26.308Z,72.20
2018-07-30T17:57:49.822Z,72.40
2018-07-30T18:00:17.737Z,71.60
2018-07-30T18:02:45.696Z,71.30
2018-07-30T18:05:17.396Z,71.80
2018-07-30T18:10:14.178Z,72.90
2018-07-30T18:12:42.087Z,72.90
2018-07-30T18:15:10.742Z,73.20
2018-07-30T18:17:38.675Z,73.50
2018-07-30T18:22:35.522Z,74.90
2018-07-30T18:25:03.566Z,74.90
2018-07-30T18:27:31.523Z,74.40
2018-07-30T18:30:00.055Z,74.10
2018-07-30T18:42:19.763Z,78.40
2018-07-30T18:44:47.710Z,79.00
2018-07-30T18:47:15.683Z,79.30
2018-07-30T18:49:43.594Z,78.70
2018-07-30T18:54:39.333Z,78.10
2018-07-30T18:59:35.244Z,79.30
2018-07-30T19:02:03.584Z,79.60
2018-07-30T19:04:31.561Z,79.70
2018-07-30T19:07:00.177Z,80.10
2018-07-30T19:09:28.058Z,80.70
2018-07-30T19:11:55.878Z,81.10
2018-07-30T19:14:24.365Z,81.50
2018-07-30T19:16:53.764Z,82.10
2018-07-30T19:19:22.843Z,82.30
2018-07-30T19:24:19.224Z,82.20
2018-07-30T19:26:47.131Z,82.60
2018-07-30T19:29:15.024Z,83.00
2018-07-30T19:31:42.973Z,82.90
2018-07-30T19:34:10.880Z,82.40
2018-07-30T19:36:38.861Z,82.20
2018-07-30T19:39:09.680Z,81.90
2018-07-30T19:41:38.067Z,82.10
2018-07-30T19:44:06.328Z,82.70
2018-07-30T19:49:02.828Z,83.10
2018-07-30T19:51:30.832Z,83.40
2018-07-30T19:53:58.800Z,83.40
2018-07-30T19:58:55.637Z,83.50
2018-07-30T20:01:23.411Z,83.60
2018-07-30T20:06:19.841Z,83.80
2018-07-30T20:08:48.345Z,84.20
2018-07-30T20:11:16.414Z,84.30
2018-07-30T20:13:44.297Z,84.70
2018-07-30T20:18:40.560Z,84.50
2018-07-30T20:21:08.458Z,84.40
2018-07-30T20:23:36.359Z,84.60
2018-07-30T20:26:04.341Z,84.90
2018-07-30T20:28:32.254Z,85.50
2018-07-30T20:31:00.233Z,85.60
2018-07-30T20:33:28.890Z,85.70
2018-07-30T20:35:56.851Z,85.70
2018-07-30T20:40:52.599Z,85.90
2018-07-30T20:43:20.507Z,86.00
2018-07-30T20:45:49.370Z,86.20
2018-07-30T20:48:17.297Z,86.50
2018-07-30T20:50:46.177Z,86.90
2018-07-30T20:53:14.134Z,87.60
2018-07-30T20:55:42.036Z,87.60
2018-07-30T20:58:10.234Z,87.80
2018-07-30T21:03:06.669Z,87.90
2018-07-30T21:05:40.338Z,87.90
2018-07-30T21:08:08.293Z,88.10
2018-07-30T21:10:36.200Z,87.80
2018-07-30T21:13:04.086Z,88.00
2018-07-30T21:15:32.005Z,88.00
2018-07-30T21:18:00.831Z,88.10
2018-07-30T21:20:28.780Z,88.60
2018-07-30T21:22:56.703Z,88.50
2018-07-30T21:25:24.691Z,88.70
2018-07-30T21:27:52.581Z,89.10
2018-07-30T21:30:20.535Z,89.10
2018-07-30T21:32:49.107Z,90.00
2018-07-30T21:35:16.995Z,89.70
2018-07-30T21:37:45.624Z,89.80
2018-07-30T21:42:41.408Z,90.10
2018-07-30T21:45:09.336Z,90.00
2018-07-30T21:52:34.036Z,90.20
2018-07-30T21:55:02.543Z,90.20
2018-07-30T21:57:30.995Z,90.20
2018-07-30T22:02:27.120Z,90.30
2018-07-30T22:04:55.314Z,90.20
2018-07-30T22:12:19.883Z,90.30
2018-07-30T22:14:48.255Z,90.50
2018-07-30T22:17:16.834Z,90.70
2018-07-30T22:19:44.755Z,90.90
2018-07-30T22:22:12.708Z,91.00
2018-07-30T22:24:40.627Z,91.00
2018-07-30T22:29:36.890Z,91.20
2018-07-30T22:32:04.925Z,91.30
2018-07-30T22:37:00.595Z,91.30
2018-07-30T22:39:28.464Z,91.20
2018-07-30T22:41:56.383Z,91.50
2018-07-30T22:44:24.935Z,91.50
2018-07-30T22:46:52.917Z,91.60
2018-07-30T22:49:20.865Z,91.60
2018-07-30T22:51:48.802Z,91.80
2018-07-30T22:59:12.923Z,91.60
2018-07-30T23:01:40.846Z,91.30
2018-07-30T23:04:08.750Z,91.60
2018-07-30T23:06:37.349Z,91.50
2018-07-30T23:09:06.553Z,91.70
2018-07-30T23:11:35.057Z,91.60
2018-07-30T23:14:02.956Z,91.60
2018-07-30T23:18:58.558Z,92.00
2018-07-30T23:21:32.710Z,92.00
2018-07-30T23:24:01.913Z,92.30
2018-07-30T23:26:29.820Z,92.40
2018-07-30T23:28:58.467Z,92.30
2018-07-30T23:31:26.337Z,92.20
2018-07-30T23:33:54.313Z,92.20
2018-07-30T23:38:50.067Z,92.10
2018-07-30T23:41:18.703Z,92.20
2018-07-30T23:43:46.648Z,92.10
2018-07-30T23:48:42.351Z,92.10
2018-07-30T23:53:39.417Z,91.80
2018-07-30T23:56:08.027Z,91.80
2018-07-30T23:58:35.934Z,91.70
